CYLW/YLW METAR and TAF weather

Enter ICAO airport designator
Station Type Date Time Source
CYLW METAR 2018/01/19 17:00 UTC NOAA

CYLW 191700Z AUTO 20004KT 9SM OVC065 M01/M03 A2982 RMK SLP119


Station Type Date Time Source
CYLW Decoded METAR 2018/01/19 17:00 UTC NOAA

Kelowna Airport, Canada (CYLW) 49-58N 119-23W 430M
Jan 19, 2018 - 12:00 PM EST / 2018.01.19 1700 UTC
Wind: from the SSW (200 degrees) at 5 MPH (4 KT):0
Visibility: 9 mile(s):0
Sky conditions: overcast
Temperature: 30 F (-1 C)
Windchill: 24 F (-4 C):1
Dew Point: 26 F (-3 C)
Relative Humidity: 86%
Pressure (altimeter): 29.82 in. Hg (1009 hPa)
ob: CYLW 191700Z AUTO 20004KT 9SM OVC065 M01/M03 A2982 RMK SLP119
cycle: 17

Station Type Date Time Source
CYLW TAF 2018/01/19 13:39 UTC NOAA

TAF CYLW 191238Z 1913/2001 VRB03KT P6SM FEW040 SCT180
FM191800 18006KT P6SM BKN070
RMK FCST BASED ON AUTO OBS. NXT FCST BY 191900Z


Example: see airport list